Aviation Digital Data Service (ADDS)

Output produced by METARs form (1038 UTC 18 June 2019)
found at http://www.aviationweather.gov/metar/data/
 
Forecast for: VEPY
Text: TAF VEPY 180800Z 1809/1818 00000KT 2500 BR SCT010 SCT025 BKN090
Forecast period: 0900 to 1800 UTC 18 June 2019
Forecast type: FROM: standard forecast or significant change
Winds: calm
Visibility: 1.55 miles (2.49 km)
Ceiling: 9000 feet AGL
Clouds: scattered clouds at 1000 feet AGL
scattered clouds at 2500 feet AGL
broken clouds at 9000 feet AGL
Weather: BR  (mist)
Text: TEMPO 1810/1814 1000 TSRA SCT008 SCT025 FEW025CB OVC080
Forecast period: 1000 to 1400 UTC 18 June 2019
Forecast type: TEMPORARY: The following changes expected for less than half the time period
Visibility: 0.62 miles (1.00 km)
Ceiling: at least 12,000 feet AGL
Clouds: scattered clouds at 800 feet AGL
scattered clouds at 2500 feet AGL
few clouds at 2500 feet AGL
Weather: TSRA  (rain associated with thunderstorm(s))